Time;durP1;ratioP1;P1;durP2;ratioP2;P2;SDS_P1;SDS_P2;PMS_P1;PMS_P2;Temp;Humidity;BMP_temperature;BMP_pressure;BME280_temperature;BME280_humidity;BME280_pressure;Samples;Min_cycle;Max_cycle;Signal;HPM_P1;HPM_P2
2023/06/02 00:01:32;;;;;;;0.00;0.00;;;;;;;12.64;100.00;101775.25;5028343;28;20052;-57
2023/06/02 00:03:59;;;;;;;1.35;0.10;;;;;;;12.69;100.00;101772.06;5035700;28;20021;-58
2023/06/02 00:06:26;;;;;;;0.55;0.20;;;;;;;12.71;100.00;101770.91;5040716;28;20036;-60
2023/06/02 00:08:52;;;;;;;0.85;0.00;;;;;;;12.83;100.00;101769.50;5043539;28;20045;-59
2023/06/02 00:11:19;;;;;;;0.73;0.38;;;;;;;12.90;100.00;101766.97;5043065;28;20036;-58
2023/06/02 00:13:44;;;;;;;0.00;0.00;;;;;;;12.85;100.00;101770.13;5040816;28;20087;-58
2023/06/02 00:16:10;;;;;;;0.73;0.03;;;;;;;12.87;100.00;101764.66;5035706;28;20490;-54
2023/06/02 00:18:37;;;;;;;0.88;0.80;;;;;;;12.90;100.00;101764.31;5035347;28;20025;-57
2023/06/02 00:21:05;;;;;;;0.00;0.00;;;;;;;12.90;100.00;101763.47;5031587;28;20103;-58
2023/06/02 00:23:30;;;;;;;0.52;0.52;;;;;;;12.97;100.00;101767.09;5031679;28;20028;-57
2023/06/02 00:25:57;;;;;;;0.00;0.00;;;;;;;12.87;100.00;101770.81;5042513;28;20070;-57
2023/06/02 00:28:22;;;;;;;0.10;0.10;;;;;;;12.71;100.00;101762.91;5042235;28;20028;-56
2023/06/02 00:30:48;;;;;;;0.95;0.08;;;;;;;12.80;100.00;101761.88;5032970;28;20032;-59
2023/06/02 00:33:13;;;;;;;2.15;0.10;;;;;;;12.86;100.00;101763.00;5041427;28;20071;-60
2023/06/02 00:35:38;;;;;;;0.13;0.00;;;;;;;12.80;100.00;101761.03;5037538;28;20029;-54
2023/06/02 00:38:04;;;;;;;2.42;0.05;;;;;;;12.82;100.00;101761.69;5029784;28;20029;-57
2023/06/02 00:40:30;;;;;;;0.32;0.20;;;;;;;12.80;100.00;101759.22;5035961;28;20465;-57
2023/06/02 00:42:56;;;;;;;0.35;0.00;;;;;;;12.70;100.00;101763.94;5038072;28;20068;-58
2023/06/02 00:45:21;;;;;;;3.72;0.00;;;;;;;12.77;100.00;101764.03;5038811;28;20134;-53
2023/06/02 00:47:46;;;;;;;0.20;0.20;;;;;;;12.74;100.00;101767.88;5041346;28;20032;-57
2023/06/02 00:50:12;;;;;;;0.80;0.00;;;;;;;12.71;100.00;101770.91;5040364;28;20040;-53
2023/06/02 00:52:39;;;;;;;0.20;0.10;;;;;;;12.76;100.00;101765.88;5028441;28;20045;-57
2023/06/02 00:55:05;;;;;;;0.77;0.10;;;;;;;12.74;100.00;101767.06;5034375;28;20057;-58
2023/06/02 00:57:34;;;;;;;0.00;0.00;;;;;;;12.75;100.00;101766.03;5027031;28;20060;-58
2023/06/02 01:00:04;;;;;;;0.00;0.00;;;;;;;12.73;100.00;101765.41;5035831;28;20375;-55
2023/06/02 01:02:31;;;;;;;4.07;0.30;;;;;;;12.69;100.00;101756.94;5038348;28;20029;-58
2023/06/02 01:04:57;;;;;;;0.05;0.00;;;;;;;12.79;100.00;101759.38;5035205;28;21304;-59
2023/06/02 01:07:24;;;;;;;0.57;0.15;;;;;;;12.84;100.00;101760.50;5035049;28;20037;-61
2023/06/02 01:09:56;;;;;;;1.65;0.10;;;;;;;12.74;100.00;101759.06;5036301;28;20081;-56
2023/06/02 01:12:22;;;;;;;0.25;0.10;;;;;;;12.74;100.00;101761.72;5029296;28;20621;-59
2023/06/02 01:14:48;;;;;;;0.00;0.00;;;;;;;12.82;100.00;101764.34;5033894;28;20040;-58
2023/06/02 01:17:13;;;;;;;0.35;0.00;;;;;;;12.68;100.00;101749.97;5030043;28;20041;-59
2023/06/02 01:19:40;;;;;;;1.10;0.10;;;;;;;12.70;100.00;101757.75;5033800;28;20029;-58
2023/06/02 01:22:08;;;;;;;0.13;0.00;;;;;;;12.64;100.00;101760.09;5038718;28;20033;-53
2023/06/02 01:24:39;;;;;;;1.38;0.00;;;;;;;12.58;100.00;101755.47;5036368;28;20034;-57
2023/06/02 01:27:09;;;;;;;1.08;0.10;;;;;;;12.50;100.00;101758.19;5032883;28;20056;-55
2023/06/02 01:29:36;;;;;;;0.20;0.10;;;;;;;12.35;100.00;101774.03;5033359;28;20029;-57
2023/06/02 01:32:08;;;;;;;2.05;0.13;;;;;;;12.33;100.00;101760.06;5039996;28;20021;-57
2023/06/02 01:34:50;;;;;;;2.92;0.73;;;;;;;12.35;100.00;101766.03;5043392;28;20907;-54
2023/06/02 01:37:16;;;;;;;2.38;0.10;;;;;;;12.42;100.00;101769.69;5038179;28;20614;-59
2023/06/02 01:39:42;;;;;;;0.00;0.00;;;;;;;12.53;100.00;101755.16;5040872;28;20036;-50
2023/06/02 01:42:10;;;;;;;3.20;0.38;;;;;;;12.57;100.00;101761.81;5040578;28;20029;-58
2023/06/02 01:44:37;;;;;;;1.70;0.20;;;;;;;12.57;100.00;101755.66;5040684;28;20033;-56
2023/06/02 01:47:02;;;;;;;2.17;0.00;;;;;;;12.53;100.00;101752.50;5038138;28;20044;-59
2023/06/02 01:49:27;;;;;;;3.60;0.65;;;;;;;12.50;100.00;101754.69;5038532;28;20033;-56
2023/06/02 01:51:54;;;;;;;0.30;0.00;;;;;;;12.55;100.00;101758.50;5035733;28;20507;-57
2023/06/02 01:54:20;;;;;;;2.90;0.10;;;;;;;12.55;100.00;101755.00;5034746;28;20128;-56
2023/06/02 01:56:46;;;;;;;0.00;0.00;;;;;;;12.60;100.00;101753.50;5037088;28;20980;-54
2023/06/02 01:59:11;;;;;;;0.85;0.00;;;;;;;12.55;100.00;101755.00;5041261;28;20033;-56
2023/06/02 02:01:40;;;;;;;1.80;0.20;;;;;;;12.45;100.00;101744.56;5032165;28;20513;-52
2023/06/02 02:04:05;;;;;;;3.33;0.20;;;;;;;12.51;100.00;101749.19;5040956;28;21102;-51
2023/06/02 02:06:31;;;;;;;0.55;0.20;;;;;;;12.51;100.00;101756.34;5032267;28;20072;-55
2023/06/02 02:08:57;;;;;;;2.38;0.17;;;;;;;12.50;100.00;101752.03;5044217;28;20093;-55
2023/06/02 02:11:22;;;;;;;0.63;0.20;;;;;;;12.49;100.00;101751.19;5042020;28;20034;-53
2023/06/02 02:13:48;;;;;;;1.17;0.00;;;;;;;12.50;100.00;101747.53;5044354;28;20094;-52
2023/06/02 02:16:13;;;;;;;0.75;0.10;;;;;;;12.41;100.00;101748.56;5044968;28;20103;-59
2023/06/02 02:18:40;;;;;;;0.10;0.10;;;;;;;12.48;100.00;101746.06;5039376;28;20133;-55
2023/06/02 02:21:05;;;;;;;1.88;0.10;;;;;;;12.49;100.00;101743.22;5039963;28;20135;-58
2023/06/02 02:23:31;;;;;;;1.45;0.10;;;;;;;12.49;100.00;101737.06;5044825;28;20156;-57
2023/06/02 02:25:56;;;;;;;2.50;0.93;;;;;;;12.43;100.00;101747.38;5034748;28;20022;-58
2023/06/02 02:28:22;;;;;;;0.90;0.00;;;;;;;12.52;100.00;101744.69;5038271;28;20037;-59
2023/06/02 02:30:47;;;;;;;2.28;0.32;;;;;;;12.43;100.00;101744.72;5038317;28;20454;-58
2023/06/02 02:33:13;;;;;;;1.33;0.17;;;;;;;12.54;100.00;101738.19;5033081;28;20032;-62
2023/06/02 02:35:38;;;;;;;0.88;0.00;;;;;;;12.54;100.00;101740.03;5039324;28;20033;-54
2023/06/02 02:38:04;;;;;;;0.95;0.25;;;;;;;12.43;100.00;101730.59;5022260;28;20128;-56
2023/06/02 02:40:29;;;;;;;0.25;0.10;;;;;;;12.46;100.00;101734.75;5043630;28;20455;-60
2023/06/02 02:42:55;;;;;;;0.93;0.00;;;;;;;12.50;100.00;101736.91;5034601;28;20032;-55
2023/06/02 02:45:20;;;;;;;0.65;0.20;;;;;;;12.55;100.00;101733.72;5044664;28;20032;-55
2023/06/02 02:47:46;;;;;;;2.28;0.98;;;;;;;12.55;100.00;101733.72;5041966;28;20112;-57
2023/06/02 02:50:11;;;;;;;1.65;0.20;;;;;;;12.44;100.00;101726.94;5041071;28;20060;-57
2023/06/02 02:52:36;;;;;;;2.75;0.10;;;;;;;12.37;100.00;101726.81;5042714;28;20836;-56
2023/06/02 02:55:02;;;;;;;3.45;0.20;;;;;;;12.36;100.00;101719.00;5044957;28;20029;-54
2023/06/02 02:57:28;;;;;;;3.78;1.10;;;;;;;12.32;100.00;101725.69;5043794;28;20036;-56
2023/06/02 02:59:55;;;;;;;4.30;0.50;;;;;;;12.36;100.00;101711.00;5022759;28;20032;-57
2023/06/02 03:02:21;;;;;;;2.22;0.30;;;;;;;12.35;100.00;101712.03;5037618;28;20073;-54
2023/06/02 03:04:46;;;;;;;8.60;0.20;;;;;;;12.44;100.00;101722.47;5042747;28;20108;-55
2023/06/02 03:07:11;;;;;;;5.28;0.20;;;;;;;12.53;100.00;101727.75;5044348;28;20059;-52
2023/06/02 03:09:37;;;;;;;1.40;0.20;;;;;;;12.60;100.00;101716.22;5040163;28;20112;-52
2023/06/02 03:12:02;;;;;;;2.17;0.40;;;;;;;12.56;100.00;101717.56;5040120;28;20108;-59
2023/06/02 03:14:28;;;;;;;8.88;0.50;;;;;;;12.47;100.00;101720.44;5041317;28;20021;-56
2023/06/02 03:16:54;;;;;;;2.08;0.43;;;;;;;12.39;100.00;101719.50;5044443;28;20474;-56
2023/06/02 03:19:21;;;;;;;2.83;1.08;;;;;;;12.26;100.00;101726.34;5036316;28;20493;-56
2023/06/02 03:21:46;;;;;;;5.10;0.20;;;;;;;11.81;100.00;101730.44;5039733;28;20060;-58
2023/06/02 03:24:13;;;;;;;2.35;1.00;;;;;;;11.79;100.00;101739.38;5040540;28;20037;-61
2023/06/02 03:26:40;;;;;;;7.35;0.80;;;;;;;11.69;100.00;101741.38;5033145;28;20090;-60
2023/06/02 03:29:06;;;;;;;6.93;1.10;;;;;;;11.67;100.00;101745.19;5040218;28;20455;-56
2023/06/02 03:31:32;;;;;;;1.35;0.32;;;;;;;11.70;100.00;101743.06;5036408;28;20336;-60
2023/06/02 03:33:57;;;;;;;2.10;0.35;;;;;;;11.71;100.00;101751.84;5040248;28;20032;-56
2023/06/02 03:36:22;;;;;;;5.30;0.30;;;;;;;11.67;100.00;101747.84;5038702;28;20036;-54
2023/06/02 03:38:48;;;;;;;1.23;0.20;;;;;;;11.60;100.00;101745.06;5028185;28;20041;-61
2023/06/02 03:41:13;;;;;;;1.35;0.47;;;;;;;11.65;100.00;101752.53;5041747;28;20489;-58
2023/06/02 03:43:39;;;;;;;0.40;0.40;;;;;;;11.71;100.00;101747.38;5040239;28;20546;-55
2023/06/02 03:46:05;;;;;;;4.07;1.55;;;;;;;11.70;100.00;101745.72;5035793;28;20680;-60
2023/06/02 03:48:30;;;;;;;1.80;0.68;;;;;;;11.68;100.00;101747.69;5039863;28;20439;-55
2023/06/02 03:50:55;;;;;;;8.13;0.55;;;;;;;11.68;100.00;101741.56;5040533;28;20466;-56
2023/06/02 03:53:21;;;;;;;4.68;0.95;;;;;;;11.70;100.00;101745.72;5042994;28;20296;-57
2023/06/02 03:55:46;;;;;;;2.38;0.35;;;;;;;11.72;100.00;101746.38;5039462;28;20048;-59
2023/06/02 03:58:12;;;;;;;6.60;0.35;;;;;;;11.74;100.00;101752.34;5042443;28;20043;-55
2023/06/02 04:00:37;;;;;;;4.82;0.82;;;;;;;11.66;100.00;101744.38;5033028;28;20036;-56
2023/06/02 04:03:03;;;;;;;4.75;0.30;;;;;;;11.72;100.00;101748.19;5032137;28;20027;-56
2023/06/02 04:05:28;;;;;;;2.15;0.88;;;;;;;11.72;100.00;101742.88;5036511;28;20364;-59
2023/06/02 04:07:56;;;;;;;1.80;0.52;;;;;;;11.76;100.00;101744.22;5036516;28;20028;-57
2023/06/02 04:10:21;;;;;;;0.68;0.30;;;;;;;11.76;100.00;101738.91;5038287;28;20033;-58
2023/06/02 04:12:47;;;;;;;3.40;0.20;;;;;;;11.80;100.00;101745.53;5042710;28;20025;-62
2023/06/02 04:15:12;;;;;;;3.25;0.52;;;;;;;11.70;100.00;101745.72;5041856;28;20061;-58
2023/06/02 04:17:38;;;;;;;3.47;0.40;;;;;;;11.77;100.00;101748.50;5039985;28;20029;-57
2023/06/02 04:20:04;;;;;;;6.10;0.80;;;;;;;11.87;100.00;101741.22;5035252;28;20032;-60
2023/06/02 04:22:29;;;;;;;5.78;0.43;;;;;;;11.78;100.00;101752.84;5022543;28;20067;-55
2023/06/02 04:24:55;;;;;;;2.67;0.30;;;;;;;11.83;100.00;101744.38;5031495;28;20445;-59
2023/06/02 04:27:20;;;;;;;2.50;0.47;;;;;;;11.79;100.00;101752.66;5038258;28;20029;-55
2023/06/02 04:29:45;;;;;;;0.93;0.20;;;;;;;11.87;100.00;101751.84;5031931;28;20444;-53
2023/06/02 04:32:11;;;;;;;4.97;1.17;;;;;;;11.74;100.00;101749.69;5033626;28;20680;-58
2023/06/02 04:34:36;;;;;;;4.05;1.27;;;;;;;11.78;100.00;101758.97;5037406;28;20116;-51
2023/06/02 04:37:02;;;;;;;3.15;0.93;;;;;;;11.73;100.00;101744.56;5030348;28;20397;-52
2023/06/02 04:39:28;;;;;;;2.63;0.63;;;;;;;11.76;100.00;101746.88;5034944;28;20030;-55
2023/06/02 04:41:56;;;;;;;3.80;1.02;;;;;;;11.70;100.00;101756.34;5043011;28;20041;-53
2023/06/02 04:44:22;;;;;;;2.55;0.47;;;;;;;11.73;100.00;101750.69;5041125;28;20106;-50
2023/06/02 04:46:48;;;;;;;1.60;0.25;;;;;;;11.81;100.00;101752.50;5042817;28;20114;-55
2023/06/02 04:49:13;;;;;;;5.85;0.40;;;;;;;11.79;100.00;101754.50;5041846;28;20482;-51
2023/06/02 04:51:39;;;;;;;1.08;0.75;;;;;;;11.92;100.00;101751.34;5035145;28;20044;-56
2023/06/02 04:54:04;;;;;;;4.93;0.70;;;;;;;11.99;100.00;101747.84;5036035;28;20029;-55
2023/06/02 04:56:30;;;;;;;4.00;1.75;;;;;;;12.03;100.00;101748.38;5036975;28;20036;-53
2023/06/02 04:58:56;;;;;;;5.63;0.55;;;;;;;11.96;100.00;101750.03;5039586;28;20378;-57
2023/06/02 05:01:21;;;;;;;5.60;0.52;;;;;;;12.03;100.00;101744.84;5036781;28;20045;-54
2023/06/02 05:03:47;;;;;;;6.43;1.05;;;;;;;12.07;100.00;101746.19;5036861;28;20654;-52
2023/06/02 05:06:12;;;;;;;6.22;0.90;;;;;;;11.99;100.00;101747.84;5009710;28;20032;-52
2023/06/02 05:08:37;;;;;;;6.68;2.13;;;;;;;11.99;100.00;101752.34;5041780;28;20029;-52
2023/06/02 05:11:03;;;;;;;2.58;0.45;;;;;;;11.97;100.00;101751.69;5036588;28;20025;-53
2023/06/02 05:13:28;;;;;;;6.03;0.40;;;;;;;11.95;100.00;101754.53;5032928;28;20506;-55
2023/06/02 05:15:55;;;;;;;2.72;0.75;;;;;;;11.95;100.00;101749.22;5034752;28;20025;-53
2023/06/02 05:18:21;;;;;;;3.88;0.45;;;;;;;12.04;100.00;101752.66;5043106;28;20052;-54
2023/06/02 05:20:46;;;;;;;4.95;0.63;;;;;;;12.19;100.00;101752.81;5036060;28;20484;-57
2023/06/02 05:23:11;;;;;;;7.78;0.73;;;;;;;12.15;100.00;101741.66;5036136;28;20037;-56
2023/06/02 05:25:39;;;;;;;5.15;0.73;;;;;;;12.23;100.00;101738.16;5035791;28;20153;-55
2023/06/02 05:28:04;;;;;;;3.67;0.43;;;;;;;12.30;100.00;101746.28;5036116;28;20029;-55
2023/06/02 05:30:29;;;;;;;3.25;1.65;;;;;;;12.32;100.00;101738.97;5031847;28;20336;-56
2023/06/02 05:32:54;;;;;;;5.93;0.45;;;;;;;12.37;100.00;101740.09;5033262;28;20112;-53
2023/06/02 05:35:20;;;;;;;5.57;0.63;;;;;;;12.46;100.00;101737.41;5035773;28;20115;-57
2023/06/02 05:37:45;;;;;;;4.97;2.72;;;;;;;12.41;100.00;101738.75;5043145;28;20037;-58
2023/06/02 05:40:11;;;;;;;5.22;0.50;;;;;;;12.39;100.00;101745.25;5039525;28;20029;-55
2023/06/02 05:42:37;;;;;;;3.25;0.70;;;;;;;12.46;100.00;101734.75;5035218;28;20025;-54
2023/06/02 05:45:05;;;;;;;5.78;0.63;;;;;;;12.25;100.00;101741.47;5044517;28;20021;-65
2023/06/02 05:47:31;;;;;;;23.35;1.60;;;;;;;12.25;100.00;101740.66;5044011;28;20075;-54
2023/06/02 05:49:56;;;;;;;5.20;0.95;;;;;;;12.30;100.00;101755.09;5045199;28;20048;-54
2023/06/02 05:52:22;;;;;;;1.20;0.50;;;;;;;12.39;100.00;101748.75;5040563;28;20088;-54
2023/06/02 05:54:47;;;;;;;4.85;0.28;;;;;;;12.47;100.00;101747.03;5035516;28;20061;-52
2023/06/02 05:57:12;;;;;;;2.95;0.65;;;;;;;12.44;100.00;101741.09;5039248;28;20103;-55
2023/06/02 05:59:39;;;;;;;8.38;2.03;;;;;;;12.49;100.00;101742.38;5041613;28;20565;-56
2023/06/02 06:02:05;;;;;;;3.78;0.60;;;;;;;12.57;100.00;101748.50;5040114;28;20045;-52
2023/06/02 06:04:31;;;;;;;9.23;1.02;;;;;;;12.57;100.00;101747.66;5043138;28;20490;-56
2023/06/02 06:06:56;;;;;;;3.80;0.88;;;;;;;12.60;100.00;101744.69;5039868;28;20039;-56
2023/06/02 06:09:21;;;;;;;3.30;0.95;;;;;;;12.60;100.00;101750.00;5025785;28;20028;-53
2023/06/02 06:11:47;;;;;;;5.78;0.25;;;;;;;12.63;100.00;101742.50;5044769;28;20028;-56
2023/06/02 06:14:12;;;;;;;1.90;0.70;;;;;;;12.60;100.00;101737.53;5044373;28;20116;-53
2023/06/02 06:16:38;;;;;;;5.47;0.40;;;;;;;12.60;100.00;101742.03;5041891;28;20033;-57
2023/06/02 06:19:03;;;;;;;3.13;0.55;;;;;;;12.51;100.00;101737.72;5043482;28;20030;-53
2023/06/02 06:21:29;;;;;;;6.15;1.33;;;;;;;12.65;100.00;101739.66;5044144;28;20078;-58
2023/06/02 06:23:54;;;;;;;5.28;0.47;;;;;;;12.64;100.00;101738.81;5047365;28;20114;-53
2023/06/02 06:26:20;;;;;;;6.88;0.68;;;;;;;12.72;100.00;101745.94;5035495;28;20029;-55
2023/06/02 06:28:45;;;;;;;6.30;0.82;;;;;;;12.64;100.00;101745.97;5038738;28;20037;-60
2023/06/02 06:31:10;;;;;;;3.47;0.45;;;;;;;12.48;100.00;101743.41;5037605;28;20041;-58
2023/06/02 06:33:36;;;;;;;5.97;1.60;;;;;;;12.47;100.00;101747.91;5048288;28;20040;-56
2023/06/02 06:36:01;;;;;;;2.85;0.30;;;;;;;12.58;100.00;101738.69;5045749;28;20029;-58
2023/06/02 06:38:26;;;;;;;1.95;0.82;;;;;;;12.64;100.00;101746.78;5044260;28;20064;-60
2023/06/02 06:40:52;;;;;;;3.60;0.55;;;;;;;12.66;100.00;101758.09;5043166;28;20025;-58
2023/06/02 06:43:17;;;;;;;5.20;0.95;;;;;;;12.64;100.00;101746.78;5044911;28;20367;-59
2023/06/02 06:45:43;;;;;;;6.75;2.63;;;;;;;12.74;100.00;101743.94;5019258;28;20029;-56
2023/06/02 06:48:08;;;;;;;4.10;0.80;;;;;;;12.71;100.00;101746.94;5032514;28;20036;-58
2023/06/02 06:50:35;;;;;;;3.22;0.68;;;;;;;12.44;100.00;101758.84;5033820;28;20106;-60
2023/06/02 06:53:03;;;;;;;4.95;0.45;;;;;;;12.46;100.00;101743.56;5041541;28;20048;-59
2023/06/02 06:55:28;;;;;;;3.05;0.60;;;;;;;12.58;100.00;101746.69;5039019;28;20029;-59
2023/06/02 06:57:54;;;;;;;3.95;0.93;;;;;;;12.69;100.00;101743.63;5038959;28;20029;-55
2023/06/02 07:00:19;;;;;;;1.92;0.77;;;;;;;12.68;100.00;101760.59;5040761;28;20086;-57
2023/06/02 07:02:45;;;;;;;1.95;0.40;;;;;;;12.83;100.00;101752.69;5035394;28;20447;-57
2023/06/02 07:05:10;;;;;;;9.55;0.82;;;;;;;12.91;100.00;101760.66;5035638;28;20383;-60
2023/06/02 07:07:35;;;;;;;3.58;0.60;;;;;;;13.04;100.00;101754.75;5040605;28;20074;-59
2023/06/02 07:10:01;;;;;;;2.40;0.85;;;;;;;13.06;100.00;101750.91;5035773;28;20383;-58
2023/06/02 07:12:27;;;;;;;10.43;1.40;;;;;;;13.06;100.00;101756.25;5037466;28;20417;-58
2023/06/02 07:14:52;;;;;;;3.60;0.70;;;;;;;13.18;100.00;101756.63;5038402;28;20082;-60
2023/06/02 07:17:18;;;;;;;1.92;0.60;;;;;;;13.32;100.00;101755.09;5044171;28;20037;-60
2023/06/02 07:19:44;;;;;;;3.78;0.88;;;;;;;13.49;100.00;101753.94;5032690;28;20036;-56
2023/06/02 07:22:10;;;;;;;4.63;0.52;;;;;;;13.62;100.00;101753.31;5037069;28;20080;-59
2023/06/02 07:24:35;;;;;;;3.67;1.02;;;;;;;13.82;100.00;101753.66;5041011;28;20063;-60
2023/06/02 07:27:02;;;;;;;6.90;0.68;;;;;;;13.89;100.00;101743.09;5031936;28;20456;-59
2023/06/02 07:29:27;;;;;;;8.15;0.95;;;;;;;14.00;100.00;101744.50;5036287;28;20037;-60
2023/06/02 07:31:52;;;;;;;3.00;0.70;;;;;;;14.07;100.00;101740.06;5043766;28;20386;-59
2023/06/02 07:34:18;;;;;;;4.40;0.57;;;;;;;14.06;100.00;101739.25;5043721;28;20099;-62
2023/06/02 07:36:44;;;;;;;4.22;0.47;;;;;;;13.80;100.00;101744.19;5043671;28;20111;-59
2023/06/02 07:39:10;;;;;;;3.70;0.35;;;;;;;13.82;100.00;101748.31;5042367;28;20102;-59
2023/06/02 07:41:35;;;;;;;4.68;0.73;;;;;;;13.89;100.00;101737.78;5035827;28;20514;-63
2023/06/02 07:44:01;;;;;;;7.28;0.73;;;;;;;14.14;100.00;101741.00;5042022;28;20048;-59
2023/06/02 07:46:26;;;;;;;3.60;1.15;;;;;;;14.36;100.00;101741.91;5030097;28;20064;-58
2023/06/02 07:48:51;;;;;;;5.30;1.15;;;;;;;14.40;100.00;101745.84;5036555;28;20033;-53
2023/06/02 07:51:17;;;;;;;1.38;0.30;;;;;;;14.10;100.00;101751.22;5029628;28;20037;-60
2023/06/02 07:53:42;;;;;;;1.80;0.17;;;;;;;13.88;100.00;101754.75;5036892;28;20060;-60
2023/06/02 07:56:07;;;;;;;3.80;0.30;;;;;;;13.89;100.00;101764.44;5044123;28;20032;-59
2023/06/02 07:58:33;;;;;;;3.13;0.63;;;;;;;14.08;100.00;101747.88;5040294;28;20387;-64
2023/06/02 08:00:58;;;;;;;6.57;0.80;;;;;;;14.26;100.00;101752.03;5044187;28;20522;-59
2023/06/02 08:03:23;;;;;;;6.00;1.25;;;;;;;14.31;100.00;101753.13;5036730;28;20025;-58
2023/06/02 08:05:49;;;;;;;2.05;0.25;;;;;;;14.16;100.00;101753.13;5039346;28;20532;-59
2023/06/02 08:08:14;;;;;;;3.08;0.50;;;;;;;14.14;100.00;101757.00;5042426;28;20115;-56
2023/06/02 08:10:40;;;;;;;0.95;0.35;;;;;;;14.10;100.00;101755.72;5037314;28;20124;-64
2023/06/02 08:13:05;;;;;;;2.53;0.15;;;;;;;14.24;100.00;101762.06;5024565;28;20563;-53
2023/06/02 08:15:31;;;;;;;5.32;0.70;;;;;;;14.36;100.00;101766.75;5043513;28;20033;-58
2023/06/02 08:17:56;;;;;;;1.65;0.25;;;;;;;14.44;100.00;101765.81;5031535;28;20053;-64
2023/06/02 08:20:21;;;;;;;8.40;1.20;;;;;;;14.36;100.00;101771.25;5039687;28;20029;-55
2023/06/02 08:22:47;;;;;;;2.25;0.52;;;;;;;14.25;100.00;101769.88;5035639;28;20159;-59
2023/06/02 08:25:13;;;;;;;5.13;1.05;;;;;;;14.09;100.00;101762.88;5042510;28;20192;-63
2023/06/02 08:27:38;;;;;;;3.30;0.35;;;;;;;14.08;100.00;101763.88;5030840;28;20029;-58
2023/06/02 08:30:08;;;;;;;6.82;0.30;;;;;;;14.23;100.00;101763.91;5040914;28;20033;-61
2023/06/02 08:32:34;;;;;;;0.88;0.28;;;;;;;14.26;100.00;101754.72;5029356;28;20035;-49
2023/06/02 08:35:02;;;;;;;6.30;0.40;;;;;;;14.23;100.00;101765.75;5043853;28;20029;-55
2023/06/02 08:37:29;;;;;;;8.70;0.20;;;;;;;14.48;100.00;101761.78;5041707;28;20025;-61
2023/06/02 08:39:55;;;;;;;2.88;0.95;;;;;;;14.94;100.00;101756.19;5043104;28;20025;-55
2023/06/02 08:42:22;;;;;;;1.48;0.20;;;;;;;15.19;100.00;101751.31;5034880;28;20106;-63
2023/06/02 08:44:48;;;;;;;4.32;0.88;;;;;;;15.41;100.00;101752.16;5039954;28;20044;-61
2023/06/02 08:47:14;;;;;;;4.75;0.90;;;;;;;15.60;100.00;101752.50;5020608;28;20025;-57
2023/06/02 08:49:45;;;;;;;2.60;0.82;;;;;;;15.57;100.00;101747.56;5033322;28;20029;-63
2023/06/02 08:52:22;;;;;;;0.98;0.20;;;;;;;15.75;100.00;101750.59;5029694;28;20068;-63
2023/06/02 08:54:48;;;;;;;3.80;0.38;;;;;;;15.77;100.00;101753.06;5038305;28;20086;-56
2023/06/02 08:57:16;;;;;;;0.65;0.28;;;;;;;15.66;100.00;101752.53;5032995;28;20043;-58
2023/06/02 08:59:42;;;;;;;5.47;0.60;;;;;;;15.45;100.00;101750.72;5041291;28;20039;-62
2023/06/02 09:02:07;;;;;;;8.35;0.65;;;;;;;15.15;100.00;101744.69;5042075;28;20067;-57
2023/06/02 09:04:33;;;;;;;4.68;0.45;;;;;;;15.23;100.00;101746.41;5034097;28;20435;-63
2023/06/02 09:07:20;;;;;;;1.27;0.52;;;;;;;15.48;100.00;101746.84;5034993;28;20542;-65
2023/06/02 09:09:51;;;;;;;1.50;0.40;;;;;;;15.67;100.00;101742.72;5039702;28;20025;-60
2023/06/02 09:12:18;;;;;;;4.65;0.50;;;;;;;15.67;100.00;101742.72;5048561;28;20036;-59
2023/06/02 09:14:45;;;;;;;3.72;0.85;;;;;;;15.44;100.00;101743.75;5043626;28;20114;-61
2023/06/02 09:17:26;;;;;;;4.65;0.80;;;;;;;15.54;100.00;101742.56;5041657;28;20502;-64
2023/06/02 09:19:52;;;;;;;;;;;;;;;15.74;100.00;101727.53;5039353;28;20036;-52
2023/06/02 09:22:18;;;;;;;4.55;0.30;;;;;;;15.37;100.00;101744.72;5042303;28;20308;-56
2023/06/02 09:24:43;;;;;;;4.38;0.50;;;;;;;14.93;100.00;101725.16;5046877;28;20159;-59
2023/06/02 09:27:14;;;;;;;7.10;1.17;;;;;;;15.22;100.00;101734.06;5038705;28;20147;-63
2023/06/02 09:29:40;;;;;;;2.35;0.50;;;;;;;15.52;100.00;101733.94;5047311;28;20040;-57
2023/06/02 09:32:18;;;;;;;4.75;0.60;;;;;;;15.83;100.00;101737.09;5043899;28;20115;-62
2023/06/02 09:34:45;;;;;;;2.25;0.20;;;;;;;16.38;100.00;101737.19;5048415;28;20060;-63
2023/06/02 09:37:15;;;;;;;2.92;1.50;;;;;;;16.56;100.00;101739.34;5041576;28;20037;-63
2023/06/02 09:39:42;;;;;;;3.90;0.43;;;;;;;16.84;100.00;101731.22;5032935;28;20156;-64
2023/06/02 09:42:08;;;;;;;5.32;0.40;;;;;;;17.06;100.00;101729.19;5040223;28;20107;-58
2023/06/02 09:44:33;;;;;;;3.63;0.65;;;;;;;17.19;100.00;101734.59;5047195;28;20485;-54
2023/06/02 09:47:01;;;;;;;5.93;0.65;;;;;;;17.11;100.00;101734.75;5047360;28;20025;-58
2023/06/02 09:49:38;;;;;;;5.30;0.77;;;;;;;17.15;100.00;101733.34;5027584;28;20083;-62
2023/06/02 09:52:14;;;;;;;7.13;1.38;;;;;;;17.15;100.00;101727.16;5047094;28;20048;-60
2023/06/02 09:54:42;;;;;;;8.88;0.98;;;;;;;17.13;100.00;101737.25;5047107;28;20021;-59
2023/06/02 09:57:09;;;;;;;7.07;0.30;;;;;;;16.64;100.00;101749.88;5044777;28;20032;-51
2023/06/02 09:59:36;;;;;;;1.90;0.15;;;;;;;16.35;100.00;101733.06;5042767;28;20033;-67
2023/06/02 10:02:02;;;;;;;3.22;0.90;;;;;;;16.46;100.00;101739.69;5046112;28;20087;-56
2023/06/02 10:04:27;;;;;;;0.93;0.40;;;;;;;17.09;100.00;101731.50;5043469;28;20123;-65
2023/06/02 10:07:06;;;;;;;7.95;1.48;;;;;;;17.63;100.00;101727.81;5043732;28;20033;-66
2023/06/02 10:09:56;;;;;;;7.93;0.68;;;;;;;17.95;100.00;101740.59;5038768;28;20037;-59
2023/06/02 10:12:27;;;;;;;3.67;0.82;;;;;;;18.33;100.00;101726.41;5038186;28;20041;-58
2023/06/02 10:15:07;;;;;;;6.00;0.35;;;;;;;18.15;100.00;101737.84;5043483;28;20116;-49
2023/06/02 10:17:55;;;;;;;6.43;0.73;;;;;;;17.85;98.69;101730.28;5024462;28;20044;-57
2023/06/02 10:20:33;;;;;;;8.40;1.10;;;;;;;17.56;100.00;101736.88;5031699;28;20033;-61
2023/06/02 10:23:07;;;;;;;1.08;0.20;;;;;;;18.33;98.46;101727.28;5037851;28;20385;-63
2023/06/02 10:25:51;;;;;;;0.85;0.10;;;;;;;19.03;100.00;101713.91;5039590;28;20386;-60
2023/06/02 10:28:17;;;;;;;4.78;0.32;;;;;;;19.55;96.43;101725.28;5043832;28;20041;-59
2023/06/02 10:30:42;;;;;;;5.13;0.75;;;;;;;19.74;96.88;101720.78;5043644;28;20437;-63
2023/06/02 10:33:07;;;;;;;8.10;1.00;;;;;;;19.67;97.82;101720.06;5035147;28;20030;-60
2023/06/02 10:35:56;;;;;;;10.73;1.15;;;;;;;18.72;96.63;101717.38;5038652;28;20051;-62
2023/06/02 10:38:28;;;;;;;3.42;0.30;;;;;;;18.15;97.20;101725.25;5039096;28;20389;-54
2023/06/02 10:40:54;;;;;;;7.75;1.65;;;;;;;18.22;100.00;101730.59;5038562;28;20123;-63
2023/06/02 10:43:20;;;;;;;7.43;0.75;;;;;;;18.46;100.00;101731.75;5040659;28;20033;-62
2023/06/02 10:45:45;;;;;;;6.93;1.55;;;;;;;18.22;100.00;101735.97;5039470;28;20445;-62
2023/06/02 10:48:38;;;;;;;1.95;0.60;;;;;;;18.06;97.63;101732.69;5041049;28;20031;-57
2023/06/02 10:51:05;;;;;;;9.88;0.98;;;;;;;18.50;99.41;101722.22;5016458;28;20041;-60
2023/06/02 10:53:31;;;;;;;8.15;1.48;;;;;;;18.48;96.39;101730.50;5041866;28;20477;-58
2023/06/02 10:55:56;;;;;;;5.25;0.98;;;;;;;18.48;94.75;101735.03;5036824;28;20036;-60
2023/06/02 10:58:50;;;;;;;5.25;0.52;;;;;;;18.20;94.52;101716.56;5019316;28;20517;-60
2023/06/02 11:01:49;;;;;;;1.50;0.60;;;;;;;18.47;93.59;101722.66;5037221;28;20052;-58
2023/06/02 11:04:27;;;;;;;2.00;0.57;;;;;;;19.20;94.22;101716.88;5033075;28;20442;-60
2023/06/02 11:07:21;;;;;;;5.90;0.68;;;;;;;19.31;92.18;101707.28;5033149;28;20027;-56
2023/06/02 11:09:50;;;;;;;5.75;0.85;;;;;;;19.67;92.45;101705.75;5041006;28;20123;-53
2023/06/02 11:12:15;;;;;;;4.43;0.90;;;;;;;19.48;92.66;101694.94;5040423;28;20110;-51
2023/06/02 11:15:04;;;;;;;4.90;1.58;;;;;;;19.54;91.58;101690.53;5040971;28;20136;-62
2023/06/02 11:17:31;;;;;;;2.95;0.65;;;;;;;19.87;89.72;101694.81;5040299;28;20394;-59